createdAt,value
2022-08-04T00:02:46.084Z,56.78
2022-08-04T00:06:02.693Z,57.75
2022-08-04T00:09:14.363Z,57.84
2022-08-04T00:12:31.100Z,57.96
2022-08-04T00:15:38.187Z,57.79
2022-08-04T00:18:53.359Z,57.81
2022-08-04T00:22:07.898Z,58.08
2022-08-04T00:25:17.470Z,58.45
2022-08-04T00:28:25.365Z,58.63
2022-08-04T00:31:56.208Z,59.09
2022-08-04T00:35:14.875Z,59.12
2022-08-04T00:38:22.615Z,59.56
2022-08-04T00:41:56.339Z,59.53
2022-08-04T00:45:22.752Z,59.41
2022-08-04T00:48:53.163Z,59.42
2022-08-04T00:52:31.917Z,59.59
2022-08-04T00:56:29.455Z,60.06
2022-08-04T01:00:02.938Z,60.41
2022-08-04T01:03:20.809Z,60.68
2022-08-04T01:06:40.499Z,61.26
2022-08-04T01:10:04.285Z,60.81
2022-08-04T01:14:01.346Z,61.05
2022-08-04T01:17:24.253Z,61.16
2022-08-04T01:20:38.730Z,61.02
2022-08-04T01:24:07.635Z,61.26
2022-08-04T01:27:30.807Z,61.17
2022-08-04T01:30:47.200Z,61.47
2022-08-04T01:34:03.857Z,61.95
2022-08-04T01:37:25.254Z,62.02
2022-08-04T01:40:35.287Z,61.91
2022-08-04T01:43:54.458Z,61.29
2022-08-04T01:47:07.580Z,61.56
2022-08-04T01:50:18.363Z,61.91
2022-08-04T01:53:34.085Z,61.81
2022-08-04T01:56:47.429Z,61.36
2022-08-04T01:59:59.688Z,61.81
2022-08-04T02:03:16.249Z,62.06
2022-08-04T02:06:38.025Z,61.55
2022-08-04T02:10:01.601Z,61.14
2022-08-04T02:13:26.719Z,62.39
2022-08-04T02:16:40.422Z,63.06
2022-08-04T02:20:18.967Z,62.39
2022-08-04T02:23:33.944Z,62.98
2022-08-04T02:26:48.601Z,63.17
2022-08-04T02:30:11.026Z,63.16
2022-08-04T02:33:30.531Z,63.36
2022-08-04T02:36:50.519Z,63.74
2022-08-04T02:40:04.903Z,64.16
2022-08-04T02:43:14.728Z,63.77
2022-08-04T02:46:32.651Z,63.44
2022-08-04T02:49:45.421Z,63.64
2022-08-04T02:53:03.124Z,63.47
2022-08-04T02:56:24.523Z,63.88
2022-08-04T02:59:48.425Z,63.72
2022-08-04T03:03:09.985Z,63.78
2022-08-04T03:07:03.574Z,64.32
2022-08-04T03:10:48.432Z,64.74
2022-08-04T03:14:44.336Z,64.50
2022-08-04T03:18:26.458Z,65.09
2022-08-04T03:22:00.532Z,65.17
2022-08-04T03:25:35.806Z,64.93
2022-08-04T03:29:36.500Z,64.88
2022-08-04T03:33:25.207Z,65.18
2022-08-04T03:37:04.858Z,65.32
2022-08-04T03:40:39.852Z,65.52
2022-08-04T03:44:32.759Z,65.55
2022-08-04T03:48:20.704Z,65.83
2022-08-04T03:52:06.188Z,65.36
2022-08-04T03:55:47.887Z,65.75
2022-08-04T03:59:25.603Z,66.03
2022-08-04T04:02:59.815Z,65.95
2022-08-04T04:06:44.689Z,66.29
2022-08-04T04:10:32.254Z,66.32
2022-08-04T04:14:08.509Z,66.75
2022-08-04T04:17:40.563Z,66.45
2022-08-04T04:21:01.471Z,66.91
2022-08-04T04:24:55.969Z,66.58
2022-08-04T04:28:47.499Z,66.50
2022-08-04T04:32:10.456Z,67.16
2022-08-04T04:35:38.227Z,67.45
2022-08-04T04:39:13.917Z,67.16
2022-08-04T04:42:53.430Z,66.81
2022-08-04T04:46:28.247Z,65.90
2022-08-04T04:53:49.511Z,63.92
2022-08-04T04:57:53.254Z,62.98
2022-08-04T05:01:32.513Z,62.44
2022-08-04T05:05:16.215Z,62.40
2022-08-04T05:09:18.975Z,61.72
2022-08-04T05:14:34.998Z,61.33
2022-08-04T05:21:14.661Z,61.29
2022-08-04T05:24:24.428Z,61.98
2022-08-04T05:27:40.461Z,61.38
2022-08-04T05:30:58.112Z,60.87
2022-08-04T05:34:13.986Z,59.45
2022-08-04T05:37:28.383Z,59.16
2022-08-04T05:40:42.734Z,58.73
2022-08-04T05:43:51.084Z,57.89
2022-08-04T05:47:04.958Z,57.96
2022-08-04T05:50:11.833Z,56.81
2022-08-04T05:53:25.823Z,55.86
2022-08-04T05:56:47.423Z,55.31
2022-08-04T06:00:14.832Z,54.47
2022-08-04T06:03:43.847Z,53.68
2022-08-04T06:07:01.440Z,53.73
2022-08-04T06:10:31.808Z,53.00
2022-08-04T06:13:58.577Z,52.91
2022-08-04T06:18:35.586Z,52.24
2022-08-04T06:21:23.901Z,51.45
2022-08-04T06:24:34.094Z,51.58
2022-08-04T06:27:44.455Z,50.54
2022-08-04T06:30:53.741Z,49.96
2022-08-04T06:34:00.640Z,49.54
2022-08-04T06:37:07.401Z,47.82
2022-08-04T06:40:30.439Z,45.44
2022-08-04T06:43:43.950Z,44.90
2022-08-04T06:46:54.794Z,44.72
2022-08-04T06:51:25.742Z,44.88
2022-08-04T06:53:31.215Z,45.07
2022-08-04T06:56:39.603Z,44.98
2022-08-04T06:59:49.945Z,44.92
2022-08-04T07:03:00.129Z,44.14
2022-08-04T07:06:14.718Z,43.97
2022-08-04T07:09:27.268Z,43.55
2022-08-04T07:12:36.442Z,42.27
2022-08-04T07:15:48.380Z,42.94
2022-08-04T07:18:56.904Z,42.07
2022-08-04T07:22:05.289Z,40.73
2022-08-04T07:25:58.895Z,40.39
2022-08-04T07:28:59.233Z,40.67
2022-08-04T07:32:07.159Z,39.59
2022-08-04T07:36:09.461Z,37.90
2022-08-04T07:39:03.131Z,37.74
2022-08-04T07:42:35.247Z,38.38
2022-08-04T07:46:08.409Z,36.34
2022-08-04T07:49:54.242Z,36.69
2022-08-04T07:57:01.476Z,36.58
2022-08-04T08:00:15.899Z,35.25
2022-08-04T08:03:39.236Z,35.29
2022-08-04T08:06:58.434Z,35.37
2022-08-04T08:10:08.631Z,34.41
2022-08-04T08:17:58.250Z,34.44
2022-08-04T08:21:11.790Z,33.77
2022-08-04T08:25:19.702Z,33.92
2022-08-04T08:32:34.384Z,33.59
2022-08-04T08:36:04.653Z,34.31
2022-08-04T08:39:42.688Z,32.63
2022-08-04T08:44:07.671Z,33.51
2022-08-04T08:48:05.912Z,32.03
2022-08-04T08:52:02.506Z,32.37
2022-08-04T09:04:30.113Z,31.58
2022-08-04T09:08:17.517Z,32.77
2022-08-04T09:11:29.777Z,31.55
2022-08-04T09:14:47.618Z,30.95
2022-08-04T09:18:00.312Z,31.71
2022-08-04T09:21:14.904Z,30.55
2022-08-04T09:24:37.134Z,30.62
2022-08-04T09:28:09.468Z,29.94
2022-08-04T09:31:51.701Z,30.33
2022-08-04T09:35:21.071Z,29.20
2022-08-04T09:38:41.439Z,29.40
2022-08-04T09:42:14.567Z,29.74
2022-08-04T09:45:43.390Z,29.27
2022-08-04T09:49:00.146Z,28.68
2022-08-04T09:52:19.123Z,27.27
2022-08-04T09:55:54.340Z,27.97
2022-08-04T09:59:14.272Z,26.78
2022-08-04T10:02:35.146Z,27.68
2022-08-04T10:05:52.542Z,26.77
2022-08-04T10:09:12.159Z,26.33
2022-08-04T10:12:39.414Z,26.13
2022-08-04T10:16:09.263Z,25.85
2022-08-04T10:19:52.769Z,25.78
2022-08-04T10:23:16.118Z,26.03
2022-08-04T10:26:39.791Z,25.79
2022-08-04T10:29:55.315Z,26.27
2022-08-04T10:33:15.603Z,26.25
2022-08-04T10:36:27.657Z,27.10
2022-08-04T10:40:09.103Z,26.04
2022-08-04T10:43:32.864Z,25.26
2022-08-04T10:46:49.148Z,25.44
2022-08-04T10:50:07.705Z,25.32
2022-08-04T10:53:24.435Z,25.92
2022-08-04T10:57:42.693Z,26.18
2022-08-04T11:06:27.554Z,25.63
2022-08-04T11:22:17.806Z,25.79
2022-08-04T11:26:37.344Z,26.16
2022-08-04T11:38:58.293Z,25.23
2022-08-04T11:42:51.611Z,23.79
2022-08-04T11:46:33.576Z,24.34
2022-08-04T11:50:15.073Z,23.32
2022-08-04T11:53:36.797Z,23.65
2022-08-04T11:56:53.857Z,23.68
2022-08-04T12:00:08.204Z,23.37
2022-08-04T12:03:32.924Z,23.22
2022-08-04T12:07:30.019Z,22.73
2022-08-04T12:11:19.175Z,22.78
2022-08-04T12:14:51.388Z,23.14
2022-08-04T12:18:07.681Z,23.16
2022-08-04T12:21:21.197Z,23.46
2022-08-04T12:24:34.669Z,23.05
2022-08-04T12:27:49.248Z,23.32
2022-08-04T12:31:18.287Z,22.81
2022-08-04T12:34:39.140Z,22.97
2022-08-04T12:38:00.169Z,21.77
2022-08-04T12:41:06.819Z,22.99
2022-08-04T12:52:07.669Z,22.25
2022-08-04T12:56:01.503Z,22.44
2022-08-04T13:03:02.761Z,22.12
2022-08-04T13:06:23.483Z,21.12
2022-08-04T13:09:36.471Z,21.13
2022-08-04T13:12:43.860Z,21.58
2022-08-04T13:16:24.307Z,21.10
2022-08-04T13:19:41.625Z,21.77
2022-08-04T13:22:56.241Z,21.62
2022-08-04T13:26:43.881Z,22.07
2022-08-04T13:33:57.436Z,21.78
2022-08-04T13:37:02.695Z,22.12
2022-08-04T13:40:07.404Z,21.29
2022-08-04T13:44:15.385Z,21.78
2022-08-04T13:46:50.823Z,21.75
2022-08-04T13:50:11.214Z,21.03
2022-08-04T13:53:18.706Z,21.07
2022-08-04T13:56:30.527Z,20.65
2022-08-04T13:59:38.709Z,21.55
2022-08-04T14:02:45.433Z,20.91
2022-08-04T14:06:07.926Z,21.12
2022-08-04T14:09:15.297Z,20.91
2022-08-04T14:12:45.856Z,21.02
2022-08-04T14:16:01.823Z,21.67
2022-08-04T14:19:06.720Z,21.04
2022-08-04T14:22:15.109Z,21.93
2022-08-04T14:25:18.540Z,21.05
2022-08-04T14:29:08.421Z,21.48
2022-08-04T14:32:01.628Z,21.21
2022-08-04T14:35:12.236Z,21.56
2022-08-04T14:38:15.272Z,21.61
2022-08-04T14:41:20.056Z,21.45
2022-08-04T14:44:22.865Z,21.85
2022-08-04T14:47:52.991Z,21.35
2022-08-04T14:50:56.104Z,19.88
2022-08-04T14:53:58.879Z,21.19
2022-08-04T14:57:07.077Z,20.81
2022-08-04T15:00:13.531Z,20.47
2022-08-04T15:03:21.725Z,20.76
2022-08-04T15:06:26.990Z,19.96
2022-08-04T15:09:30.223Z,20.14
2022-08-04T15:12:32.994Z,20.39
2022-08-04T15:15:37.595Z,20.95
2022-08-04T15:18:42.776Z,21.60
2022-08-04T15:21:52.257Z,21.31
2022-08-04T15:24:55.999Z,21.23
2022-08-04T15:28:00.121Z,20.51
2022-08-04T15:32:01.793Z,21.08
2022-08-04T15:34:29.757Z,21.06
2022-08-04T15:37:40.701Z,21.26
2022-08-04T15:40:51.513Z,21.44
2022-08-04T15:44:09.438Z,21.96
2022-08-04T15:47:16.855Z,21.13
2022-08-04T15:50:28.403Z,20.85
2022-08-04T15:54:03.160Z,20.83
2022-08-04T15:57:01.336Z,21.08
2022-08-04T16:00:11.306Z,20.69
2022-08-04T16:03:57.826Z,21.06
2022-08-04T16:07:06.839Z,22.02
2022-08-04T16:10:38.594Z,21.91
2022-08-04T16:14:09.127Z,22.26
2022-08-04T16:17:17.175Z,22.38
2022-08-04T16:20:20.723Z,22.14
2022-08-04T16:24:02.062Z,22.08
2022-08-04T16:27:09.642Z,22.08
2022-08-04T16:30:14.924Z,21.59
2022-08-04T16:33:17.862Z,22.76
2022-08-04T16:36:56.817Z,23.11
2022-08-04T16:40:36.435Z,22.99
2022-08-04T16:43:44.960Z,22.87
2022-08-04T16:47:21.353Z,24.27
2022-08-04T16:50:36.506Z,23.46
2022-08-04T16:54:04.722Z,25.06
2022-08-04T16:57:17.880Z,23.77
2022-08-04T17:00:34.322Z,24.68
2022-08-04T17:03:42.134Z,25.41
2022-08-04T17:06:50.988Z,24.86
2022-08-04T17:10:01.726Z,25.32
2022-08-04T17:14:02.848Z,25.64
2022-08-04T17:17:19.719Z,25.25
2022-08-04T17:21:00.845Z,24.61
2022-08-04T17:24:14.142Z,25.39
2022-08-04T17:28:20.457Z,24.90
2022-08-04T17:31:12.046Z,26.27
2022-08-04T17:34:34.458Z,26.04
2022-08-04T17:37:53.279Z,27.20
2022-08-04T17:41:19.410Z,27.58
2022-08-04T17:45:01.863Z,29.23
2022-08-04T17:48:25.223Z,30.04
2022-08-04T17:52:04.386Z,30.68
2022-08-04T17:55:16.334Z,31.36
2022-08-04T17:58:42.405Z,31.89
2022-08-04T18:02:05.489Z,32.49
2022-08-04T18:06:01.846Z,32.46
2022-08-04T18:09:22.738Z,33.81
2022-08-04T18:12:30.826Z,34.06
2022-08-04T18:15:46.311Z,34.42
2022-08-04T18:19:13.695Z,35.06
2022-08-04T18:22:28.328Z,35.12
2022-08-04T18:29:05.957Z,35.37
2022-08-04T18:32:20.184Z,36.37
2022-08-04T18:36:31.383Z,37.89
2022-08-04T18:39:13.148Z,39.06
2022-08-04T18:42:23.123Z,38.39
2022-08-04T18:45:33.862Z,38.77
2022-08-04T18:48:52.400Z,38.62
2022-08-04T18:52:02.058Z,38.84
2022-08-04T18:55:56.489Z,38.39
2022-08-04T18:58:48.820Z,38.57
2022-08-04T19:02:12.886Z,38.73
2022-08-04T19:05:23.950Z,38.23
2022-08-04T19:08:47.714Z,38.48
2022-08-04T19:11:58.815Z,39.29
2022-08-04T19:15:08.808Z,39.46
2022-08-04T19:18:19.912Z,39.61
2022-08-04T19:22:01.461Z,40.76
2022-08-04T19:25:09.897Z,40.41
2022-08-04T19:28:20.395Z,40.33
2022-08-04T19:31:40.079Z,41.11
2022-08-04T19:34:57.863Z,41.40
2022-08-04T19:38:09.654Z,41.32
2022-08-04T19:41:27.201Z,40.94
2022-08-04T19:44:43.752Z,41.76
2022-08-04T19:48:17.146Z,41.68
2022-08-04T19:51:30.354Z,41.40
2022-08-04T19:54:47.504Z,42.15
2022-08-04T19:57:57.115Z,42.25
2022-08-04T20:01:31.323Z,42.80
2022-08-04T20:04:40.814Z,43.21
2022-08-04T20:08:05.720Z,43.16
2022-08-04T20:11:12.855Z,43.77
2022-08-04T20:21:29.606Z,43.92
2022-08-04T20:24:53.355Z,44.07
2022-08-04T20:28:25.617Z,44.11
2022-08-04T20:31:43.365Z,44.02
2022-08-04T20:34:58.432Z,44.20
2022-08-04T20:38:04.843Z,44.45
2022-08-04T20:41:12.923Z,44.43
2022-08-04T20:44:22.276Z,45.37
2022-08-04T20:47:35.563Z,45.16
2022-08-04T20:51:03.762Z,45.37
2022-08-04T20:54:16.255Z,44.70
2022-08-04T20:57:47.432Z,44.81
2022-08-04T21:00:57.358Z,44.85
2022-08-04T21:04:28.209Z,45.35
2022-08-04T21:07:43.704Z,44.69
2022-08-04T21:10:50.836Z,45.11
2022-08-04T21:14:01.774Z,45.90
2022-08-04T21:17:11.694Z,45.64
2022-08-04T21:20:27.703Z,46.41
2022-08-04T21:23:37.477Z,46.79
2022-08-04T21:26:54.127Z,46.05
2022-08-04T21:30:03.928Z,46.44
2022-08-04T21:33:20.196Z,47.09
2022-08-04T21:36:31.919Z,47.90
2022-08-04T21:39:59.321Z,47.79
2022-08-04T21:43:07.673Z,47.90
2022-08-04T21:46:16.363Z,47.72
2022-08-04T21:49:25.974Z,48.23
2022-08-04T21:52:47.954Z,48.58
2022-08-04T21:56:06.133Z,49.50
2022-08-04T21:59:15.138Z,49.55
2022-08-04T22:02:24.243Z,49.25
2022-08-04T22:05:39.238Z,49.74
2022-08-04T22:08:49.574Z,49.62
2022-08-04T22:12:03.341Z,49.73
2022-08-04T22:15:23.261Z,49.89
2022-08-04T22:18:45.499Z,49.74
2022-08-04T22:21:54.987Z,50.12
2022-08-04T22:25:13.374Z,50.35
2022-08-04T22:28:28.569Z,50.45
2022-08-04T22:31:55.746Z,50.84
2022-08-04T22:35:31.022Z,50.62
2022-08-04T22:38:49.762Z,50.98
2022-08-04T22:42:03.599Z,51.17
2022-08-04T22:45:10.581Z,50.90
2022-08-04T22:48:14.395Z,50.63
2022-08-04T22:51:17.751Z,51.02
2022-08-04T22:54:20.485Z,51.16
2022-08-04T22:57:24.972Z,51.61
2022-08-04T23:00:53.038Z,51.91
2022-08-04T23:03:57.201Z,52.05
2022-08-04T23:07:00.468Z,52.06
2022-08-04T23:10:03.170Z,51.88
2022-08-04T23:13:07.888Z,51.97
2022-08-04T23:16:14.043Z,52.91
2022-08-04T23:19:17.315Z,52.86
2022-08-04T23:22:42.075Z,52.48
2022-08-04T23:26:07.717Z,52.34
2022-08-04T23:29:07.825Z,53.06
2022-08-04T23:32:13.576Z,53.54
2022-08-04T23:35:16.492Z,53.87
2022-08-04T23:38:30.463Z,53.83
2022-08-04T23:41:53.889Z,54.07
2022-08-04T23:44:57.783Z,54.44
2022-08-04T23:48:18.480Z,55.35
2022-08-04T23:51:22.369Z,55.17
2022-08-04T23:54:26.131Z,54.94
2022-08-04T23:57:31.644Z,54.78
